sensor_id;sensor_type;location;lat;lon;timestamp;temperature;humidity
14737;DHT22;7459;53.590;10.062;2023-11-21T00:00:19;9.20;99.90
14737;DHT22;7459;53.590;10.062;2023-11-21T00:02:45;9.20;99.90
14737;DHT22;7459;53.590;10.062;2023-11-21T00:05:12;9.20;99.90
14737;DHT22;7459;53.590;10.062;2023-11-21T00:07:42;9.20;99.90
14737;DHT22;7459;53.590;10.062;2023-11-21T00:10:09;9.10;99.90
14737;DHT22;7459;53.590;10.062;2023-11-21T00:12:36;9.10;99.90
14737;DHT22;7459;53.590;10.062;2023-11-21T00:15:03;9.10;99.90
14737;DHT22;7459;53.590;10.062;2023-11-21T00:17:30;9.10;99.90
14737;DHT22;7459;53.590;10.062;2023-11-21T00:19:56;9.00;99.90
14737;DHT22;7459;53.590;10.062;2023-11-21T00:22:22;9.00;99.90
14737;DHT22;7459;53.590;10.062;2023-11-21T00:24:48;8.90;99.90
14737;DHT22;7459;53.590;10.062;2023-11-21T00:27:13;8.90;99.90
14737;DHT22;7459;53.590;10.062;2023-11-21T00:29:40;8.90;99.90
14737;DHT22;7459;53.590;10.062;2023-11-21T00:32:06;8.90;99.90
14737;DHT22;7459;53.590;10.062;2023-11-21T00:34:32;8.90;99.90
14737;DHT22;7459;53.590;10.062;2023-11-21T00:36:58;8.90;99.90
14737;DHT22;7459;53.590;10.062;2023-11-21T00:39:24;8.90;99.90
14737;DHT22;7459;53.590;10.062;2023-11-21T00:41:51;8.80;99.90
14737;DHT22;7459;53.590;10.062;2023-11-21T00:44:17;8.80;99.90
14737;DHT22;7459;53.590;10.062;2023-11-21T00:46:43;8.80;99.90
14737;DHT22;7459;53.590;10.062;2023-11-21T00:49:08;8.70;99.90
14737;DHT22;7459;53.590;10.062;2023-11-21T00:51:34;8.70;99.90
14737;DHT22;7459;53.590;10.062;2023-11-21T00:54:00;8.70;99.90
14737;DHT22;7459;53.590;10.062;2023-11-21T00:56:26;8.70;99.90
14737;DHT22;7459;53.590;10.062;2023-11-21T00:58:52;8.70;99.90
14737;DHT22;7459;53.590;10.062;2023-11-21T01:01:19;8.60;99.90
14737;DHT22;7459;53.590;10.062;2023-11-21T01:03:48;8.60;99.90
14737;DHT22;7459;53.590;10.062;2023-11-21T01:06:14;8.60;99.90
14737;DHT22;7459;53.590;10.062;2023-11-21T01:08:41;8.60;99.90
14737;DHT22;7459;53.590;10.062;2023-11-21T01:11:06;8.60;99.90
14737;DHT22;7459;53.590;10.062;2023-11-21T01:13:34;8.60;99.90
14737;DHT22;7459;53.590;10.062;2023-11-21T01:16:00;8.60;99.90
14737;DHT22;7459;53.590;10.062;2023-11-21T01:18:26;8.50;99.90
14737;DHT22;7459;53.590;10.062;2023-11-21T01:20:52;8.50;99.90
14737;DHT22;7459;53.590;10.062;2023-11-21T01:23:20;8.50;99.90
14737;DHT22;7459;53.590;10.062;2023-11-21T01:25:46;8.50;99.90
14737;DHT22;7459;53.590;10.062;2023-11-21T01:28:11;8.40;99.90
14737;DHT22;7459;53.590;10.062;2023-11-21T01:30:37;8.40;99.90
14737;DHT22;7459;53.590;10.062;2023-11-21T01:33:03;8.40;99.90
14737;DHT22;7459;53.590;10.062;2023-11-21T01:35:29;8.40;99.90
14737;DHT22;7459;53.590;10.062;2023-11-21T01:37:55;8.40;99.90
14737;DHT22;7459;53.590;10.062;2023-11-21T01:40:21;8.30;99.90
14737;DHT22;7459;53.590;10.062;2023-11-21T01:42:47;8.30;99.90
14737;DHT22;7459;53.590;10.062;2023-11-21T01:45:13;8.30;99.90
14737;DHT22;7459;53.590;10.062;2023-11-21T01:47:40;8.30;99.90
14737;DHT22;7459;53.590;10.062;2023-11-21T01:50:14;8.20;99.90
14737;DHT22;7459;53.590;10.062;2023-11-21T01:52:46;8.20;99.90
14737;DHT22;7459;53.590;10.062;2023-11-21T01:55:15;8.20;99.90
14737;DHT22;7459;53.590;10.062;2023-11-21T01:57:43;8.20;99.90
14737;DHT22;7459;53.590;10.062;2023-11-21T02:00:10;8.20;99.90
14737;DHT22;7459;53.590;10.062;2023-11-21T02:02:48;8.20;99.90
14737;DHT22;7459;53.590;10.062;2023-11-21T02:05:17;8.30;99.90
14737;DHT22;7459;53.590;10.062;2023-11-21T02:07:45;8.20;99.90
14737;DHT22;7459;53.590;10.062;2023-11-21T02:10:14;8.20;99.90
14737;DHT22;7459;53.590;10.062;2023-11-21T02:12:41;8.20;99.90
14737;DHT22;7459;53.590;10.062;2023-11-21T02:15:13;8.20;99.90
14737;DHT22;7459;53.590;10.062;2023-11-21T02:17:45;8.10;99.90
14737;DHT22;7459;53.590;10.062;2023-11-21T02:20:13;8.10;99.90
14737;DHT22;7459;53.590;10.062;2023-11-21T02:22:53;8.10;99.90
14737;DHT22;7459;53.590;10.062;2023-11-21T02:25:32;8.10;99.90
14737;DHT22;7459;53.590;10.062;2023-11-21T02:28:00;8.10;99.90
14737;DHT22;7459;53.590;10.062;2023-11-21T02:30:27;8.10;99.90
14737;DHT22;7459;53.590;10.062;2023-11-21T02:32:54;8.10;99.90
14737;DHT22;7459;53.590;10.062;2023-11-21T02:35:22;8.10;99.90
14737;DHT22;7459;53.590;10.062;2023-11-21T02:37:49;8.10;99.90
14737;DHT22;7459;53.590;10.062;2023-11-21T02:40:15;8.10;99.90
14737;DHT22;7459;53.590;10.062;2023-11-21T02:42:49;8.00;99.90
14737;DHT22;7459;53.590;10.062;2023-11-21T02:45:20;8.00;99.90
14737;DHT22;7459;53.590;10.062;2023-11-21T02:47:47;8.00;99.90
14737;DHT22;7459;53.590;10.062;2023-11-21T02:50:14;8.00;99.90
14737;DHT22;7459;53.590;10.062;2023-11-21T02:52:40;8.00;99.90
14737;DHT22;7459;53.590;10.062;2023-11-21T02:55:06;7.90;99.90
14737;DHT22;7459;53.590;10.062;2023-11-21T02:57:32;7.90;99.90
14737;DHT22;7459;53.590;10.062;2023-11-21T02:59:59;7.90;99.90
14737;DHT22;7459;53.590;10.062;2023-11-21T03:05:00;8.00;99.90
14737;DHT22;7459;53.590;10.062;2023-11-21T03:07:26;7.90;99.90
14737;DHT22;7459;53.590;10.062;2023-11-21T03:09:52;7.90;99.90
14737;DHT22;7459;53.590;10.062;2023-11-21T03:12:17;7.90;99.90
14737;DHT22;7459;53.590;10.062;2023-11-21T03:14:44;7.90;99.90
14737;DHT22;7459;53.590;10.062;2023-11-21T03:17:10;7.90;99.90
14737;DHT22;7459;53.590;10.062;2023-11-21T03:19:37;7.80;99.90
14737;DHT22;7459;53.590;10.062;2023-11-21T03:22:03;7.80;99.90
14737;DHT22;7459;53.590;10.062;2023-11-21T03:24:29;7.80;99.90
14737;DHT22;7459;53.590;10.062;2023-11-21T03:26:55;7.80;99.90
14737;DHT22;7459;53.590;10.062;2023-11-21T03:29:21;7.80;99.90
14737;DHT22;7459;53.590;10.062;2023-11-21T03:31:47;7.80;99.90
14737;DHT22;7459;53.590;10.062;2023-11-21T03:34:22;7.70;99.90
14737;DHT22;7459;53.590;10.062;2023-11-21T03:36:49;7.70;99.90
14737;DHT22;7459;53.590;10.062;2023-11-21T03:39:15;7.70;99.90
14737;DHT22;7459;53.590;10.062;2023-11-21T03:41:40;7.70;99.90
14737;DHT22;7459;53.590;10.062;2023-11-21T03:44:06;7.70;99.90
14737;DHT22;7459;53.590;10.062;2023-11-21T03:46:32;7.70;99.90
14737;DHT22;7459;53.590;10.062;2023-11-21T03:48:57;7.60;99.90
14737;DHT22;7459;53.590;10.062;2023-11-21T03:51:23;7.60;99.90
14737;DHT22;7459;53.590;10.062;2023-11-21T03:53:49;7.60;99.90
14737;DHT22;7459;53.590;10.062;2023-11-21T03:56:15;7.60;99.90
14737;DHT22;7459;53.590;10.062;2023-11-21T03:58:40;7.60;99.90
14737;DHT22;7459;53.590;10.062;2023-11-21T04:01:06;7.60;99.90
14737;DHT22;7459;53.590;10.062;2023-11-21T04:03:32;7.60;99.90
14737;DHT22;7459;53.590;10.062;2023-11-21T04:05:57;7.60;99.90
14737;DHT22;7459;53.590;10.062;2023-11-21T04:08:23;7.60;99.90
14737;DHT22;7459;53.590;10.062;2023-11-21T04:10:51;7.60;99.90
14737;DHT22;7459;53.590;10.062;2023-11-21T04:13:19;7.50;99.90
14737;DHT22;7459;53.590;10.062;2023-11-21T04:15:44;7.60;99.90
14737;DHT22;7459;53.590;10.062;2023-11-21T04:18:10;7.60;99.90
14737;DHT22;7459;53.590;10.062;2023-11-21T04:20:36;7.60;99.90
14737;DHT22;7459;53.590;10.062;2023-11-21T04:23:01;7.60;99.90
14737;DHT22;7459;53.590;10.062;2023-11-21T04:25:28;7.60;99.90
14737;DHT22;7459;53.590;10.062;2023-11-21T04:27:54;7.60;99.90
14737;DHT22;7459;53.590;10.062;2023-11-21T04:30:20;7.60;99.90
14737;DHT22;7459;53.590;10.062;2023-11-21T04:32:46;7.60;99.90
14737;DHT22;7459;53.590;10.062;2023-11-21T04:35:11;7.60;99.90
14737;DHT22;7459;53.590;10.062;2023-11-21T04:37:37;7.60;99.90
14737;DHT22;7459;53.590;10.062;2023-11-21T04:40:03;7.60;99.90
14737;DHT22;7459;53.590;10.062;2023-11-21T04:42:34;7.60;99.90
14737;DHT22;7459;53.590;10.062;2023-11-21T04:45:01;7.60;99.90
14737;DHT22;7459;53.590;10.062;2023-11-21T04:47:26;7.60;99.90
14737;DHT22;7459;53.590;10.062;2023-11-21T04:49:52;7.60;99.90
14737;DHT22;7459;53.590;10.062;2023-11-21T04:52:18;7.60;99.90
14737;DHT22;7459;53.590;10.062;2023-11-21T04:54:45;7.60;99.90
14737;DHT22;7459;53.590;10.062;2023-11-21T04:57:11;7.60;99.90
14737;DHT22;7459;53.590;10.062;2023-11-21T04:59:37;7.60;99.90
14737;DHT22;7459;53.590;10.062;2023-11-21T05:02:03;7.60;99.90
14737;DHT22;7459;53.590;10.062;2023-11-21T05:04:30;7.60;99.90
14737;DHT22;7459;53.590;10.062;2023-11-21T05:06:56;7.60;99.90
14737;DHT22;7459;53.590;10.062;2023-11-21T05:09:22;7.60;99.90
14737;DHT22;7459;53.590;10.062;2023-11-21T05:11:47;7.60;99.90
14737;DHT22;7459;53.590;10.062;2023-11-21T05:14:13;7.60;99.90
14737;DHT22;7459;53.590;10.062;2023-11-21T05:16:39;7.60;99.90
14737;DHT22;7459;53.590;10.062;2023-11-21T05:19:05;7.50;99.90
14737;DHT22;7459;53.590;10.062;2023-11-21T05:21:31;7.50;99.90
14737;DHT22;7459;53.590;10.062;2023-11-21T05:23:58;7.50;99.90
14737;DHT22;7459;53.590;10.062;2023-11-21T05:26:24;7.50;99.90
14737;DHT22;7459;53.590;10.062;2023-11-21T05:28:49;7.50;99.90
14737;DHT22;7459;53.590;10.062;2023-11-21T05:31:15;7.50;99.90
14737;DHT22;7459;53.590;10.062;2023-11-21T05:33:41;7.50;99.90
14737;DHT22;7459;53.590;10.062;2023-11-21T05:36:07;7.50;99.90
14737;DHT22;7459;53.590;10.062;2023-11-21T05:38:36;7.50;99.90
14737;DHT22;7459;53.590;10.062;2023-11-21T05:41:02;7.50;99.90
14737;DHT22;7459;53.590;10.062;2023-11-21T05:43:29;7.50;99.90
14737;DHT22;7459;53.590;10.062;2023-11-21T05:45:56;7.50;99.90
14737;DHT22;7459;53.590;10.062;2023-11-21T05:48:22;7.50;99.90
14737;DHT22;7459;53.590;10.062;2023-11-21T05:50:48;7.50;99.90
14737;DHT22;7459;53.590;10.062;2023-11-21T05:53:15;7.40;99.90
14737;DHT22;7459;53.590;10.062;2023-11-21T05:55:41;7.50;99.90
14737;DHT22;7459;53.590;10.062;2023-11-21T05:58:07;7.50;99.90
14737;DHT22;7459;53.590;10.062;2023-11-21T06:00:33;7.50;99.90
14737;DHT22;7459;53.590;10.062;2023-11-21T06:02:59;7.50;99.90
14737;DHT22;7459;53.590;10.062;2023-11-21T06:05:26;7.50;99.90
14737;DHT22;7459;53.590;10.062;2023-11-21T06:07:53;7.50;99.90
14737;DHT22;7459;53.590;10.062;2023-11-21T06:10:21;7.50;99.90
14737;DHT22;7459;53.590;10.062;2023-11-21T06:12:49;7.40;99.90
14737;DHT22;7459;53.590;10.062;2023-11-21T06:15:15;7.40;99.90
14737;DHT22;7459;53.590;10.062;2023-11-21T06:17:42;7.40;99.90
14737;DHT22;7459;53.590;10.062;2023-11-21T06:20:11;7.40;99.90
14737;DHT22;7459;53.590;10.062;2023-11-21T06:22:42;7.40;99.90
14737;DHT22;7459;53.590;10.062;2023-11-21T06:25:09;7.40;99.90
14737;DHT22;7459;53.590;10.062;2023-11-21T06:27:39;7.40;99.90
14737;DHT22;7459;53.590;10.062;2023-11-21T06:30:07;7.40;99.90
14737;DHT22;7459;53.590;10.062;2023-11-21T06:32:35;7.40;99.90
14737;DHT22;7459;53.590;10.062;2023-11-21T06:35:02;7.40;99.90
14737;DHT22;7459;53.590;10.062;2023-11-21T06:37:29;7.40;99.90
14737;DHT22;7459;53.590;10.062;2023-11-21T06:39:56;7.40;99.90
14737;DHT22;7459;53.590;10.062;2023-11-21T06:42:24;7.40;99.90
14737;DHT22;7459;53.590;10.062;2023-11-21T06:44:50;7.40;99.90
14737;DHT22;7459;53.590;10.062;2023-11-21T06:47:25;7.40;99.90
14737;DHT22;7459;53.590;10.062;2023-11-21T06:49:52;7.40;99.90
14737;DHT22;7459;53.590;10.062;2023-11-21T06:52:19;7.40;99.90
14737;DHT22;7459;53.590;10.062;2023-11-21T06:54:45;7.40;99.90
14737;DHT22;7459;53.590;10.062;2023-11-21T06:57:12;7.40;99.90
14737;DHT22;7459;53.590;10.062;2023-11-21T06:59:38;7.50;99.90
14737;DHT22;7459;53.590;10.062;2023-11-21T07:02:04;7.60;99.90
14737;DHT22;7459;53.590;10.062;2023-11-21T07:04:35;7.60;99.90
14737;DHT22;7459;53.590;10.062;2023-11-21T07:07:02;7.90;99.90
14737;DHT22;7459;53.590;10.062;2023-11-21T07:09:29;8.10;99.90
14737;DHT22;7459;53.590;10.062;2023-11-21T07:11:55;8.30;99.90
14737;DHT22;7459;53.590;10.062;2023-11-21T07:14:21;8.30;99.90
14737;DHT22;7459;53.590;10.062;2023-11-21T07:16:47;8.20;99.90
14737;DHT22;7459;53.590;10.062;2023-11-21T07:19:13;8.00;99.90
14737;DHT22;7459;53.590;10.062;2023-11-21T07:21:40;7.90;99.90
14737;DHT22;7459;53.590;10.062;2023-11-21T07:24:07;7.80;99.90
14737;DHT22;7459;53.590;10.062;2023-11-21T07:26:33;7.70;99.90
14737;DHT22;7459;53.590;10.062;2023-11-21T07:29:00;7.70;99.90
14737;DHT22;7459;53.590;10.062;2023-11-21T07:31:27;7.60;99.90
14737;DHT22;7459;53.590;10.062;2023-11-21T07:33:54;7.60;99.90
14737;DHT22;7459;53.590;10.062;2023-11-21T07:36:20;7.50;99.90
14737;DHT22;7459;53.590;10.062;2023-11-21T07:38:48;7.50;99.90
14737;DHT22;7459;53.590;10.062;2023-11-21T07:41:14;7.50;99.90
14737;DHT22;7459;53.590;10.062;2023-11-21T07:43:43;7.50;99.90
14737;DHT22;7459;53.590;10.062;2023-11-21T07:46:10;7.50;99.90
14737;DHT22;7459;53.590;10.062;2023-11-21T07:48:38;7.50;99.90
14737;DHT22;7459;53.590;10.062;2023-11-21T07:51:05;7.50;99.90
14737;DHT22;7459;53.590;10.062;2023-11-21T07:53:32;7.40;99.90
14737;DHT22;7459;53.590;10.062;2023-11-21T07:56:02;7.40;99.90
14737;DHT22;7459;53.590;10.062;2023-11-21T07:58:28;7.50;99.90
14737;DHT22;7459;53.590;10.062;2023-11-21T08:00:54;7.40;99.90
14737;DHT22;7459;53.590;10.062;2023-11-21T08:03:20;7.50;99.90
14737;DHT22;7459;53.590;10.062;2023-11-21T08:05:46;7.40;99.90
14737;DHT22;7459;53.590;10.062;2023-11-21T08:08:12;7.40;99.90
14737;DHT22;7459;53.590;10.062;2023-11-21T08:10:38;7.40;99.90
14737;DHT22;7459;53.590;10.062;2023-11-21T08:13:05;7.40;99.90
14737;DHT22;7459;53.590;10.062;2023-11-21T08:15:31;7.40;99.90
14737;DHT22;7459;53.590;10.062;2023-11-21T08:17:58;7.40;99.90
14737;DHT22;7459;53.590;10.062;2023-11-21T08:20:26;7.40;99.90
14737;DHT22;7459;53.590;10.062;2023-11-21T08:22:53;7.40;99.90
14737;DHT22;7459;53.590;10.062;2023-11-21T08:25:20;7.40;99.90
14737;DHT22;7459;53.590;10.062;2023-11-21T08:27:46;7.50;99.90
14737;DHT22;7459;53.590;10.062;2023-11-21T08:30:12;7.50;99.90
14737;DHT22;7459;53.590;10.062;2023-11-21T08:32:42;7.50;99.90
14737;DHT22;7459;53.590;10.062;2023-11-21T08:35:08;7.50;99.90
14737;DHT22;7459;53.590;10.062;2023-11-21T08:37:34;7.50;99.90
14737;DHT22;7459;53.590;10.062;2023-11-21T08:40:03;7.50;99.90
14737;DHT22;7459;53.590;10.062;2023-11-21T08:42:34;7.50;99.90
14737;DHT22;7459;53.590;10.062;2023-11-21T08:45:01;7.50;99.90
14737;DHT22;7459;53.590;10.062;2023-11-21T08:47:26;7.50;99.90
14737;DHT22;7459;53.590;10.062;2023-11-21T08:49:52;7.50;99.90
14737;DHT22;7459;53.590;10.062;2023-11-21T08:52:19;7.50;99.90
14737;DHT22;7459;53.590;10.062;2023-11-21T08:54:51;7.50;99.90
14737;DHT22;7459;53.590;10.062;2023-11-21T08:57:22;7.50;99.90
14737;DHT22;7459;53.590;10.062;2023-11-21T08:59:48;7.50;99.90
14737;DHT22;7459;53.590;10.062;2023-11-21T09:02:14;7.50;99.90
14737;DHT22;7459;53.590;10.062;2023-11-21T09:04:39;7.50;99.90
14737;DHT22;7459;53.590;10.062;2023-11-21T09:07:05;7.50;99.90
14737;DHT22;7459;53.590;10.062;2023-11-21T09:09:30;7.50;99.90
14737;DHT22;7459;53.590;10.062;2023-11-21T09:11:56;7.50;99.90
14737;DHT22;7459;53.590;10.062;2023-11-21T09:14:22;7.50;99.90
14737;DHT22;7459;53.590;10.062;2023-11-21T09:16:48;7.50;99.90
14737;DHT22;7459;53.590;10.062;2023-11-21T09:19:15;7.50;99.90
14737;DHT22;7459;53.590;10.062;2023-11-21T09:21:41;7.50;99.90
14737;DHT22;7459;53.590;10.062;2023-11-21T09:24:07;7.50;99.90
14737;DHT22;7459;53.590;10.062;2023-11-21T09:26:34;7.50;99.90
14737;DHT22;7459;53.590;10.062;2023-11-21T09:29:00;7.50;99.90
14737;DHT22;7459;53.590;10.062;2023-11-21T09:31:27;7.50;99.90
14737;DHT22;7459;53.590;10.062;2023-11-21T09:33:53;7.50;99.90
14737;DHT22;7459;53.590;10.062;2023-11-21T09:36:18;7.40;99.90
14737;DHT22;7459;53.590;10.062;2023-11-21T09:38:44;7.40;99.90
14737;DHT22;7459;53.590;10.062;2023-11-21T09:41:23;7.40;99.90
14737;DHT22;7459;53.590;10.062;2023-11-21T09:44:02;7.40;99.90
14737;DHT22;7459;53.590;10.062;2023-11-21T09:46:33;7.40;99.90
14737;DHT22;7459;53.590;10.062;2023-11-21T09:49:00;7.40;99.90
14737;DHT22;7459;53.590;10.062;2023-11-21T09:51:31;7.40;99.90
14737;DHT22;7459;53.590;10.062;2023-11-21T09:53:59;7.40;99.90
14737;DHT22;7459;53.590;10.062;2023-11-21T09:56:26;7.40;99.90
14737;DHT22;7459;53.590;10.062;2023-11-21T09:58:53;7.50;99.90
14737;DHT22;7459;53.590;10.062;2023-11-21T10:01:20;7.50;99.90
14737;DHT22;7459;53.590;10.062;2023-11-21T10:03:46;7.50;99.90
14737;DHT22;7459;53.590;10.062;2023-11-21T10:06:13;7.50;99.90
14737;DHT22;7459;53.590;10.062;2023-11-21T10:08:41;7.50;99.90
14737;DHT22;7459;53.590;10.062;2023-11-21T10:11:08;7.50;99.90
14737;DHT22;7459;53.590;10.062;2023-11-21T10:13:37;7.50;99.90
14737;DHT22;7459;53.590;10.062;2023-11-21T10:16:05;7.50;99.90
14737;DHT22;7459;53.590;10.062;2023-11-21T10:18:32;7.50;99.90
14737;DHT22;7459;53.590;10.062;2023-11-21T10:21:00;7.50;99.90
14737;DHT22;7459;53.590;10.062;2023-11-21T10:23:26;7.50;99.90
14737;DHT22;7459;53.590;10.062;2023-11-21T10:25:53;7.50;99.90
14737;DHT22;7459;53.590;10.062;2023-11-21T10:28:20;7.50;99.90
14737;DHT22;7459;53.590;10.062;2023-11-21T10:30:46;7.50;99.90
14737;DHT22;7459;53.590;10.062;2023-11-21T10:33:12;7.50;99.90
14737;DHT22;7459;53.590;10.062;2023-11-21T10:35:45;7.50;99.90
14737;DHT22;7459;53.590;10.062;2023-11-21T10:38:12;7.50;99.90
14737;DHT22;7459;53.590;10.062;2023-11-21T10:40:40;7.50;99.90
14737;DHT22;7459;53.590;10.062;2023-11-21T10:43:08;7.50;99.90
14737;DHT22;7459;53.590;10.062;2023-11-21T10:45:35;7.50;99.90
14737;DHT22;7459;53.590;10.062;2023-11-21T10:48:08;7.50;99.90
14737;DHT22;7459;53.590;10.062;2023-11-21T10:50:36;7.50;99.90
14737;DHT22;7459;53.590;10.062;2023-11-21T10:53:05;7.50;99.90
14737;DHT22;7459;53.590;10.062;2023-11-21T10:55:32;7.50;99.90
14737;DHT22;7459;53.590;10.062;2023-11-21T10:58:01;7.40;99.90
14737;DHT22;7459;53.590;10.062;2023-11-21T11:00:29;7.40;99.90
14737;DHT22;7459;53.590;10.062;2023-11-21T11:02:55;7.40;99.90
14737;DHT22;7459;53.590;10.062;2023-11-21T11:05:22;7.40;99.90
14737;DHT22;7459;53.590;10.062;2023-11-21T11:07:58;7.40;99.90
14737;DHT22;7459;53.590;10.062;2023-11-21T11:10:30;7.40;99.90
14737;DHT22;7459;53.590;10.062;2023-11-21T11:12:56;7.40;99.90
14737;DHT22;7459;53.590;10.062;2023-11-21T11:15:23;7.40;99.90
14737;DHT22;7459;53.590;10.062;2023-11-21T11:17:52;7.40;99.90
14737;DHT22;7459;53.590;10.062;2023-11-21T11:20:23;7.40;99.90
14737;DHT22;7459;53.590;10.062;2023-11-21T11:32:10;7.30;99.90
14737;DHT22;7459;53.590;10.062;2023-11-21T11:38:22;7.30;99.90
14737;DHT22;7459;53.590;10.062;2023-11-21T11:40:53;7.30;99.90
14737;DHT22;7459;53.590;10.062;2023-11-21T11:43:26;7.30;99.90
14737;DHT22;7459;53.590;10.062;2023-11-21T11:45:55;7.30;99.90
14737;DHT22;7459;53.590;10.062;2023-11-21T11:48:22;7.30;99.90
14737;DHT22;7459;53.590;10.062;2023-11-21T11:51:10;7.30;99.90
14737;DHT22;7459;53.590;10.062;2023-11-21T11:53:43;7.30;99.90
14737;DHT22;7459;53.590;10.062;2023-11-21T11:56:30;7.30;99.90
14737;DHT22;7459;53.590;10.062;2023-11-21T11:59:01;7.30;99.90
14737;DHT22;7459;53.590;10.062;2023-11-21T12:01:28;7.30;99.90
14737;DHT22;7459;53.590;10.062;2023-11-21T12:06:59;7.30;99.90
14737;DHT22;7459;53.590;10.062;2023-11-21T12:09:28;7.30;99.90
14737;DHT22;7459;53.590;10.062;2023-11-21T12:11:55;7.30;99.90
14737;DHT22;7459;53.590;10.062;2023-11-21T12:14:24;7.30;99.90
14737;DHT22;7459;53.590;10.062;2023-11-21T12:16:51;7.30;99.90
14737;DHT22;7459;53.590;10.062;2023-11-21T12:19:17;7.30;99.90
14737;DHT22;7459;53.590;10.062;2023-11-21T12:21:44;7.30;99.90
14737;DHT22;7459;53.590;10.062;2023-11-21T12:24:10;7.30;99.90
14737;DHT22;7459;53.590;10.062;2023-11-21T12:26:39;7.20;99.90
14737;DHT22;7459;53.590;10.062;2023-11-21T12:29:05;7.20;99.90
14737;DHT22;7459;53.590;10.062;2023-11-21T12:31:33;7.20;99.90
14737;DHT22;7459;53.590;10.062;2023-11-21T12:34:00;7.20;99.90
14737;DHT22;7459;53.590;10.062;2023-11-21T12:36:26;7.20;99.90
14737;DHT22;7459;53.590;10.062;2023-11-21T12:38:54;7.20;99.90
14737;DHT22;7459;53.590;10.062;2023-11-21T12:41:20;7.10;99.90
14737;DHT22;7459;53.590;10.062;2023-11-21T12:43:46;7.10;99.90
14737;DHT22;7459;53.590;10.062;2023-11-21T12:46:13;7.10;99.90
14737;DHT22;7459;53.590;10.062;2023-11-21T12:48:44;7.10;99.90
14737;DHT22;7459;53.590;10.062;2023-11-21T12:51:11;7.10;99.90
14737;DHT22;7459;53.590;10.062;2023-11-21T12:53:39;7.10;99.90
14737;DHT22;7459;53.590;10.062;2023-11-21T12:56:15;7.10;99.90
14737;DHT22;7459;53.590;10.062;2023-11-21T12:58:45;7.00;99.90
14737;DHT22;7459;53.590;10.062;2023-11-21T13:01:13;7.00;99.90
14737;DHT22;7459;53.590;10.062;2023-11-21T13:03:43;7.00;99.90
14737;DHT22;7459;53.590;10.062;2023-11-21T13:06:12;7.00;99.90
14737;DHT22;7459;53.590;10.062;2023-11-21T13:08:38;6.90;99.90
14737;DHT22;7459;53.590;10.062;2023-11-21T13:11:05;6.90;99.90
14737;DHT22;7459;53.590;10.062;2023-11-21T13:13:31;6.90;99.90
14737;DHT22;7459;53.590;10.062;2023-11-21T13:16:00;6.80;99.90
14737;DHT22;7459;53.590;10.062;2023-11-21T13:18:27;6.90;99.90
14737;DHT22;7459;53.590;10.062;2023-11-21T13:21:04;6.90;99.90
14737;DHT22;7459;53.590;10.062;2023-11-21T13:23:39;6.90;99.90
14737;DHT22;7459;53.590;10.062;2023-11-21T13:26:07;6.90;99.90
14737;DHT22;7459;53.590;10.062;2023-11-21T13:28:34;6.90;99.90
14737;DHT22;7459;53.590;10.062;2023-11-21T13:31:02;6.90;99.90
14737;DHT22;7459;53.590;10.062;2023-11-21T13:33:35;6.80;99.90
14737;DHT22;7459;53.590;10.062;2023-11-21T13:36:04;6.80;99.90
14737;DHT22;7459;53.590;10.062;2023-11-21T13:38:33;6.80;99.90
14737;DHT22;7459;53.590;10.062;2023-11-21T13:41:00;6.80;99.90
14737;DHT22;7459;53.590;10.062;2023-11-21T13:43:26;6.80;99.90
14737;DHT22;7459;53.590;10.062;2023-11-21T13:45:54;6.90;99.90
14737;DHT22;7459;53.590;10.062;2023-11-21T13:48:29;6.80;99.90
14737;DHT22;7459;53.590;10.062;2023-11-21T13:51:06;6.80;99.90
14737;DHT22;7459;53.590;10.062;2023-11-21T13:53:49;6.80;99.90
14737;DHT22;7459;53.590;10.062;2023-11-21T13:56:19;6.80;99.90
14737;DHT22;7459;53.590;10.062;2023-11-21T13:58:53;6.80;99.90
14737;DHT22;7459;53.590;10.062;2023-11-21T14:01:20;6.80;99.90
14737;DHT22;7459;53.590;10.062;2023-11-21T14:04:00;6.80;99.90
14737;DHT22;7459;53.590;10.062;2023-11-21T14:06:35;6.80;99.90
14737;DHT22;7459;53.590;10.062;2023-11-21T14:09:11;6.70;99.90
14737;DHT22;7459;53.590;10.062;2023-11-21T14:11:39;6.80;99.90
14737;DHT22;7459;53.590;10.062;2023-11-21T14:14:04;6.70;99.90
14737;DHT22;7459;53.590;10.062;2023-11-21T14:16:30;6.70;99.90
14737;DHT22;7459;53.590;10.062;2023-11-21T14:18:56;6.70;99.90
14737;DHT22;7459;53.590;10.062;2023-11-21T14:21:29;6.70;99.90
14737;DHT22;7459;53.590;10.062;2023-11-21T14:23:54;6.70;99.90
14737;DHT22;7459;53.590;10.062;2023-11-21T14:26:21;6.70;99.90
14737;DHT22;7459;53.590;10.062;2023-11-21T14:28:50;6.60;99.90
14737;DHT22;7459;53.590;10.062;2023-11-21T14:31:16;6.60;99.90
14737;DHT22;7459;53.590;10.062;2023-11-21T14:33:43;6.60;99.90
14737;DHT22;7459;53.590;10.062;2023-11-21T14:36:10;6.60;99.90
14737;DHT22;7459;53.590;10.062;2023-11-21T14:38:37;6.60;99.90
14737;DHT22;7459;53.590;10.062;2023-11-21T14:41:05;6.60;99.90
14737;DHT22;7459;53.590;10.062;2023-11-21T14:43:35;6.60;99.90
14737;DHT22;7459;53.590;10.062;2023-11-21T14:46:01;6.60;99.90
14737;DHT22;7459;53.590;10.062;2023-11-21T14:48:29;6.60;99.90
14737;DHT22;7459;53.590;10.062;2023-11-21T14:51:15;6.60;99.90
14737;DHT22;7459;53.590;10.062;2023-11-21T14:53:40;6.60;99.90
14737;DHT22;7459;53.590;10.062;2023-11-21T14:56:19;6.60;99.90
14737;DHT22;7459;53.590;10.062;2023-11-21T14:58:56;6.60;99.90
14737;DHT22;7459;53.590;10.062;2023-11-21T15:01:23;6.60;99.90
14737;DHT22;7459;53.590;10.062;2023-11-21T15:04:08;6.50;99.90
14737;DHT22;7459;53.590;10.062;2023-11-21T15:06:40;6.50;99.90
14737;DHT22;7459;53.590;10.062;2023-11-21T15:09:08;6.50;99.90
14737;DHT22;7459;53.590;10.062;2023-11-21T15:11:35;6.50;99.90
14737;DHT22;7459;53.590;10.062;2023-11-21T15:14:02;6.50;99.90
14737;DHT22;7459;53.590;10.062;2023-11-21T15:16:34;6.50;99.90
14737;DHT22;7459;53.590;10.062;2023-11-21T15:19:04;6.50;99.90
14737;DHT22;7459;53.590;10.062;2023-11-21T15:21:30;6.50;99.90
14737;DHT22;7459;53.590;10.062;2023-11-21T15:23:57;6.50;99.90
14737;DHT22;7459;53.590;10.062;2023-11-21T15:26:23;6.50;99.90
14737;DHT22;7459;53.590;10.062;2023-11-21T15:28:49;6.50;99.90
14737;DHT22;7459;53.590;10.062;2023-11-21T15:31:15;6.40;99.90
14737;DHT22;7459;53.590;10.062;2023-11-21T15:33:47;6.40;99.90
14737;DHT22;7459;53.590;10.062;2023-11-21T15:36:13;6.30;99.90
14737;DHT22;7459;53.590;10.062;2023-11-21T15:38:40;6.30;99.90
14737;DHT22;7459;53.590;10.062;2023-11-21T15:41:06;6.20;99.90
14737;DHT22;7459;53.590;10.062;2023-11-21T15:43:35;6.20;99.90
14737;DHT22;7459;53.590;10.062;2023-11-21T15:46:01;6.20;99.90
14737;DHT22;7459;53.590;10.062;2023-11-21T15:48:31;6.30;99.90
14737;DHT22;7459;53.590;10.062;2023-11-21T15:50:57;6.30;99.90
14737;DHT22;7459;53.590;10.062;2023-11-21T15:53:24;6.30;99.90
14737;DHT22;7459;53.590;10.062;2023-11-21T15:55:50;6.30;99.90
14737;DHT22;7459;53.590;10.062;2023-11-21T15:58:16;6.30;99.90
14737;DHT22;7459;53.590;10.062;2023-11-21T16:00:42;6.30;99.90
14737;DHT22;7459;53.590;10.062;2023-11-21T16:03:08;6.30;99.90
14737;DHT22;7459;53.590;10.062;2023-11-21T16:05:35;6.20;99.90